Flight Track Log - Related Links

Times and Time Zones

All times are in EDT time to prevent confusion due to time zone crossing. See the SWA4448 flight status page for this flight to view local times or setup timezone preferences in your user account.


Time Position Orientation Groundspeed Altitude Reporting Facility
EDT Latitude Longitude Course Direction KTS MPH feet Rate Location/Type
Sat 12:02:54 AM 42.9333 -87.9167 265° West 164 189 1,600  Level Milwaukee TRACON
Sat 12:05:12 AM 42.9222 -88.0861 265° West 229 264 6,500 2,667 Climbing Chicago Center
Sat 12:06:12 AM 42.9197 -88.1842 268° West 257 296 10,400 3,074 Climbing Chicago Center
Sat 12:07:13 AM 42.9242 -88.2992 273° West 303 349 12,700 2,852 Climbing Chicago Center
Sat 12:08:14 AM 42.9289 -88.4233 273° West 325 374 16,200 3,098 Climbing Chicago Center
Sat 12:09:15 AM 42.9344 -88.5519 273° West 336 387 19,000 2,777 Climbing Chicago Center
Sat 12:10:15 AM 42.9400 -88.6894 273° West 357 411 21,800 2,777 Climbing Chicago Center
Sat 12:11:16 AM 42.9444 -88.8278 273° West 362 417 24,600 2,410 Climbing Chicago Center
Sat 12:12:17 AM 42.9431 -88.9661 269° West 365 420 26,700 1,934 Climbing Chicago Center
Sat 12:13:17 AM 42.9436 -89.1103 270° West 376 433 28,500 1,636 Climbing Chicago Center
Sat 12:14:18 AM 42.9428 -89.2572 270° West 386 444 30,000 1,672 Climbing Chicago Center
Sat 12:15:19 AM 42.9464 -89.4078 272° West 395 455 31,900 1,686 Climbing Chicago Center
Sat 12:16:19 AM 42.9469 -89.5558 270° West 389 448 33,400 1,190 Climbing Chicago Center
Sat 12:17:20 AM 42.9064 -89.6956 248° West 398 458 34,300 787 Climbing Chicago Center
Sat 12:18:21 AM 42.8669 -89.8431 250° West 411 473 35,000 1,190 Climbing Chicago Center
Sat 12:19:21 AM 42.8272 -89.9978 251° West 419 482 36,700 1,339 Climbing Chicago Center
Sat 12:20:22 AM 42.7872 -90.1397 249° West 407 468 37,700 639 Climbing Chicago Center
Sat 12:21:23 AM 42.7475 -90.2869 250° West 415 478 38,000 149 Climbing Chicago Center
Sat 12:22:23 AM 42.7050 -90.4331 248° West 418 481 38,000  Level Chicago Center
Sat 12:23:24 AM 42.6650 -90.5797 250° West 417 480 38,000  Level Chicago Center
Sat 12:24:24 AM 42.6275 -90.7256 251° West 415 478 38,000  Level Chicago Center
Sat 12:25:25 AM 42.5842 -90.8689 248° West 413 475 38,000  Level Chicago Center
Sat 12:26:26 AM 42.5431 -91.0158 249° West 417 480 38,000  Level Chicago Center
Sat 12:27:26 AM 42.5017 -91.1600 249° West 414 476 38,000  Level Chicago Center
Sat 12:28:27 AM 42.4592 -91.3053 248° West 414 476 38,000  Level Chicago Center
Sat 12:29:27 AM 42.4169 -91.4497 248° West 414 476 38,000  Level Chicago Center
Sat 12:30:28 AM 42.3764 -91.5914 249° West 408 470 38,000  Level Chicago Center
Sat 12:31:28 AM 42.3367 -91.7283 249° West 398 458 38,000  Level Chicago Center
Sat 12:32:29 AM 42.2883 -91.8939 249° West 395 455 38,000  Level Chicago Center
Sat 12:33:29 AM 42.2464 -92.0272 247° West 392 451 38,000  Level Chicago Center
Sat 12:34:30 AM 42.2056 -92.1653 248° West 395 455 38,000  Level Chicago Center
Sat 12:35:15 AM 42.1817 -92.2519 250° West 396 456 38,000  Level Minneapolis Center
Sat 12:36:15 AM 42.1408 -92.3881 248° West 395 455 38,000  Level Minneapolis Center
Sat 12:36:31 AM 42.1231 -92.4389 245° Southwest 397 457 38,000  Level Chicago Center
Sat 12:37:31 AM 42.0825 -92.5772 248° West 398 458 38,000  Level Chicago Center
Sat 12:38:16 AM 42.0497 -92.6889 248° West 397 457 38,000  Level Minneapolis Center
Sat 12:39:17 AM 42.0083 -92.8250 248° West 395 455 38,000  Level Minneapolis Center
Sat 12:40:17 AM 41.9669 -92.9614 248° West 397 457 38,000  Level Minneapolis Center
Sat 12:41:18 AM 41.9267 -93.0906 247° West 395 455 38,000  Level Minneapolis Center
Sat 12:42:18 AM 41.8850 -93.2242 247° West 393 452 38,000  Level Minneapolis Center
Sat 12:43:19 AM 41.8439 -93.3567 247° West 390 449 38,000  Level Minneapolis Center
Sat 12:44:19 AM 41.8011 -93.4933 247° West 396 456 38,000  Level Minneapolis Center
Sat 12:45:20 AM 41.7592 -93.6253 247° West 393 452 38,000  Level Minneapolis Center
Sat 12:46:20 AM 41.7156 -93.7622 247° West 400 460 38,000  Level Minneapolis Center
Sat 12:47:21 AM 41.6731 -93.8981 247° West 401 461 38,000  Level Minneapolis Center
Sat 12:48:21 AM 41.6314 -94.0350 248° West 400 460 38,000  Level Minneapolis Center
Sat 12:49:34 AM 41.5675 -94.2294 246° West 409 471 38,000  Level Minneapolis Center
Sat 12:50:34 AM 41.5228 -94.3653 246° West 416 479 38,000  Level Minneapolis Center
Sat 12:51:34 AM 41.4772 -94.5061 247° West 413 475 38,000  Level Minneapolis Center
Sat 12:52:35 AM 41.4308 -94.6481 246° West 416 479 38,000  Level Minneapolis Center
Sat 12:53:35 AM 41.3861 -94.7894 247° West 413 475 38,000  Level Minneapolis Center
Sat 12:54:36 AM 41.3400 -94.9283 246° West 411 473 38,000  Level Minneapolis Center
Sat 12:55:36 AM 41.2933 -95.0683 246° West 411 473 38,000  Level Minneapolis Center
Sat 12:56:36 AM 41.2472 -95.2081 246° West 412 474 38,000  Level Minneapolis Center
Sat 12:57:37 AM 41.2006 -95.3486 246° West 414 476 38,000  Level Minneapolis Center
Sat 12:58:37 AM 41.1536 -95.4878 246° West 412 474 38,000  Level Minneapolis Center
Sat 12:59:38 AM 41.1058 -95.6278 246° West 413 475 38,000  Level Minneapolis Center
Sat 01:00:38 AM 41.0597 -95.7661 246° West 410 472 38,000  Level Minneapolis Center
Sat 01:01:39 AM 41.0111 -95.9050 245° Southwest 411 473 38,000  Level Minneapolis Center
Sat 01:02:39 AM 40.9642 -96.0439 246° West 411 473 38,000  Level Minneapolis Center
Sat 01:03:39 AM 40.9164 -96.1811 245° Southwest 409 471 38,000  Level Minneapolis Center
Sat 01:04:40 AM 40.8692 -96.3164 245° Southwest 406 467 38,000  Level Minneapolis Center
Sat 01:05:40 AM 40.8222 -96.4506 245° Southwest 402 463 38,000  Level Minneapolis Center
Sat 01:06:40 AM 40.7772 -96.5831 246° West 398 458 38,000  Level Minneapolis Center
Sat 01:07:40 AM 40.7311 -96.7161 245° Southwest 397 457 38,000  Level Minneapolis Center
Sat 01:08:41 AM 40.6847 -96.8472 245° Southwest 395 455 38,000  Level Minneapolis Center
Sat 01:09:41 AM 40.6375 -96.9778 245° Southwest 395 455 38,000  Level Minneapolis Center
Sat 01:10:41 AM 40.5922 -97.1081 245° Southwest 393 452 38,000  Level Minneapolis Center
Sat 01:11:42 AM 40.5444 -97.2372 244° Southwest 393 452 38,000  Level Minneapolis Center
Sat 01:12:42 AM 40.4953 -97.3761 245° Southwest 388 447 38,000  Level Minneapolis Center
Sat 01:13:42 AM 40.4500 -97.5039 245° Southwest 385 443 38,000  Level Minneapolis Center
Sat 01:14:42 AM 40.4042 -97.6286 244° Southwest 380 437 38,000  Level Minneapolis Center
Sat 01:15:43 AM 40.3564 -97.7536 243° Southwest 381 438 38,000  Level Minneapolis Center
Sat 01:16:43 AM 40.3083 -97.8786 243° Southwest 382 440 38,000  Level Minneapolis Center
Sat 01:17:43 AM 40.2697 -97.9775 243° Southwest 381 438 38,000  Level Minneapolis Center
Sat 01:18:43 AM 40.2214 -98.1017 243° Southwest 381 438 38,000  Level Minneapolis Center
Sat 01:19:44 AM 40.1725 -98.2278 243° Southwest 385 443 38,000  Level Minneapolis Center
Sat 01:20:44 AM 40.1236 -98.3536 243° Southwest 386 444 38,000  Level Minneapolis Center
Sat 01:21:44 AM 40.0739 -98.4783 243° Southwest 386 444 38,000  Level Minneapolis Center
Sat 01:22:44 AM 40.0242 -98.6033 243° Southwest 387 445 38,000  Level Minneapolis Center
Sat 01:23:45 AM 39.9744 -98.7289 243° Southwest 387 445 38,000  Level Minneapolis Center
Sat 01:24:45 AM 39.9250 -98.8550 243° Southwest 389 448 38,000  Level Minneapolis Center
Sat 01:25:45 AM 39.8742 -98.9808 242° Southwest 390 449 38,000  Level Minneapolis Center
Sat 01:26:45 AM 39.8247 -99.1053 243° Southwest 388 447 38,000  Level Minneapolis Center
Sat 01:27:45 AM 39.7742 -99.2292 242° Southwest 387 445 38,000  Level Minneapolis Center
Sat 01:28:00 AM 39.7536 -99.2806 243° Southwest 389 448 38,000  Level Denver Center
Sat 01:29:00 AM 39.7031 -99.4033 242° Southwest 385 443 38,000  Level Denver Center
Sat 01:30:01 AM 39.6533 -99.5264 242° Southwest 385 443 38,000  Level Denver Center
Sat 01:31:01 AM 39.6031 -99.6481 242° Southwest 383 441 38,000  Level Denver Center
Sat 01:32:02 AM 39.5514 -99.7739 242° Southwest 391 450 38,000  Level Denver Center
Sat 01:33:02 AM 39.5003 -99.8986 242° Southwest 392 451 38,000  Level Denver Center
Sat 01:34:02 AM 39.4547 -100.0081 242° Southwest 387 445 38,000  Level Denver Center
Sat 01:35:03 AM 39.3964 -100.1456 241° Southwest 388 447 38,000  Level Denver Center
Sat 01:36:03 AM 39.3456 -100.2653 241° Southwest 393 452 38,000  Level Denver Center
Sat 01:37:04 AM 39.2964 -100.3856 242° Southwest 399 459 38,000  Level Denver Center
Sat 01:38:04 AM 39.2467 -100.5031 241° Southwest 392 451 38,000  Level Denver Center
Sat 01:39:04 AM 39.1875 -100.6411 241° Southwest 391 450 38,000  Level Denver Center
Sat 01:40:05 AM 39.1389 -100.7569 242° Southwest 387 445 38,000  Level Denver Center
Sat 01:41:05 AM 39.0894 -100.8714 241° Southwest 384 442 38,000  Level Denver Center
Sat 01:42:06 AM 39.0319 -101.0081 242° Southwest 387 445 38,000  Level Denver Center
Sat 01:43:06 AM 38.9819 -101.1211 240° Southwest 392 451 38,000  Level Denver Center
Sat 01:44:07 AM 38.9322 -101.2386 241° Southwest 392 451 38,000  Level Denver Center
Sat 01:45:07 AM 38.8722 -101.3767 241° Southwest 396 456 38,000  Level Denver Center
Sat 01:46:07 AM 38.8211 -101.4956 241° Southwest 398 458 38,000  Level Denver Center
Sat 01:47:08 AM 38.7683 -101.6150 240° Southwest 401 461 38,000  Level Denver Center
Sat 01:48:08 AM 38.7081 -101.7531 241° Southwest 400 460 38,000  Level Denver Center
Sat 01:49:09 AM 38.6558 -101.8717 241° Southwest 401 461 38,000  Level Denver Center
Sat 01:50:09 AM 38.6036 -101.9881 240° Southwest 398 458 38,000  Level Denver Center
Sat 01:51:09 AM 38.5431 -102.1250 241° Southwest 396 456 38,000  Level Denver Center
Sat 01:52:10 AM 38.4906 -102.2419 240° Southwest 397 457 38,000  Level Denver Center
Sat 01:53:10 AM 38.4383 -102.3586 240° Southwest 397 457 38,000  Level Denver Center
Sat 01:54:11 AM 38.3781 -102.4964 241° Southwest 399 459 38,000  Level Denver Center
Sat 01:55:11 AM 38.3239 -102.6150 240° Southwest 404 465 38,000  Level Denver Center
Sat 01:56:11 AM 38.2703 -102.7322 240° Southwest 401 461 38,000  Level Denver Center
Sat 01:57:12 AM 38.2094 -102.8692 241° Southwest 400 460 38,000  Level Denver Center
Sat 01:58:12 AM 38.1553 -102.9864 240° Southwest 401 461 38,000  Level Denver Center
Sat 01:59:13 AM 38.1022 -103.1036 240° Southwest 399 459 38,000  Level Denver Center
Sat 02:00:13 AM 38.0436 -103.2297 239° Southwest 402 463 38,000  Level Denver Center
Sat 02:01:14 AM 37.9900 -103.3475 240° Southwest 403 464 38,000  Level Denver Center
Sat 02:02:14 AM 37.9272 -103.4839 240° Southwest 402 463 38,000  Level Denver Center
Sat 02:03:14 AM 37.8733 -103.5992 239° Southwest 400 460 38,000 198 Level Denver Center
Sat 02:04:15 AM 37.8197 -103.7161 240° Southwest 402 463 38,400 893 Climbing Denver Center
Sat 02:05:15 AM 37.7553 -103.8525 239° Southwest 403 464 39,800 793 Climbing Denver Center
Sat 02:06:16 AM 37.7017 -103.9669 239° Southwest 399 459 40,000 99 Climbing Denver Center
Sat 02:07:16 AM 37.6469 -104.0803 239° Southwest 403 464 40,000  Level Denver Center
Sat 02:08:28 AM 37.5847 -104.2117 239° Southwest 399 459 40,000  Level Denver Center
Sat 02:09:29 AM 37.5211 -104.3458 239° Southwest 403 464 40,000  Level Denver Center
Sat 02:10:29 AM 37.4567 -104.4808 239° Southwest 404 465 40,000  Level Denver Center
Sat 02:11:30 AM 37.4003 -104.5975 239° Southwest 407 468 40,000  Level Denver Center
Sat 02:12:30 AM 37.3464 -104.7119 239° Southwest 401 461 40,000  Level Denver Center
Sat 02:13:30 AM 37.2817 -104.8453 239° Southwest 401 461 40,000  Level Denver Center
Sat 02:14:31 AM 37.2250 -104.9597 238° Southwest 402 463 40,000  Level Denver Center
Sat 02:15:31 AM 37.1708 -105.0742 239° Southwest 400 460 40,000  Level Denver Center
Sat 02:16:32 AM 37.1144 -105.1886 238° Southwest 403 464 40,000  Level Denver Center
Sat 02:17:32 AM 37.0481 -105.3228 238° Southwest 406 467 40,000  Level Denver Center
Sat 02:18:32 AM 36.9925 -105.4375 239° Southwest 404 465 40,000  Level Denver Center
Sat 02:19:33 AM 36.9344 -105.5522 238° Southwest 408 470 40,000  Level Denver Center
Sat 02:20:10 AM 36.8961 -105.6467 243° Southwest 411 473 40,000  Level Albuquerque Center
Sat 02:20:33 AM 36.8686 -105.6897 231° Southwest 412 474 40,000  Level Denver Center
Sat 02:21:34 AM 36.8086 -105.8067 237° Southwest 419 482 40,000  Level Denver Center
Sat 02:22:34 AM 36.7456 -105.9383 239° Southwest 416 479 40,000  Level Denver Center
Sat 02:23:34 AM 36.6931 -106.0406 237° Southwest 423 487 40,000  Level Denver Center
Sat 02:24:35 AM 36.6317 -106.1622 238° Southwest 418 481 40,000  Level Denver Center
Sat 02:25:12 AM 36.5872 -106.2542 239° Southwest 418 481 40,000  Level Albuquerque Center
Sat 02:26:13 AM 36.5267 -106.3708 237° Southwest 419 482 40,000  Level Albuquerque Center
Sat 02:27:13 AM 36.4583 -106.5097 239° Southwest 421 484 40,000  Level Albuquerque Center
Sat 02:28:13 AM 36.3983 -106.6272 238° Southwest 421 484 40,000  Level Albuquerque Center
Sat 02:28:36 AM 36.3783 -106.6658 237° Southwest 423 487 40,000  Level Denver Center
Sat 02:29:14 AM 36.3383 -106.7439 238° Southwest 419 482 40,000  Level Albuquerque Center
Sat 02:30:14 AM 36.2689 -106.8806 238° Southwest 418 481 40,000  Level Albuquerque Center
Sat 02:31:15 AM 36.2081 -106.9972 237° Southwest 419 482 40,000  Level Albuquerque Center
Sat 02:32:15 AM 36.1475 -107.1144 237° Southwest 416 479 40,000  Level Albuquerque Center
Sat 02:33:16 AM 36.0883 -107.2281 237° Southwest 417 480 40,000  Level Albuquerque Center
Sat 02:34:16 AM 36.0183 -107.3636 237° Southwest 418 481 40,000  Level Albuquerque Center
Sat 02:35:16 AM 35.9569 -107.4822 237° Southwest 424 488 40,000  Level Albuquerque Center
Sat 02:36:17 AM 35.8953 -107.5994 237° Southwest 426 490 40,000  Level Albuquerque Center
Sat 02:37:17 AM 35.8225 -107.7389 237° Southwest 429 494 40,000  Level Albuquerque Center
Sat 02:38:17 AM 35.7594 -107.8575 237° Southwest 431 496 40,000  Level Albuquerque Center
Sat 02:39:18 AM 35.6972 -107.9761 237° Southwest 430 495 40,000  Level Albuquerque Center
Sat 02:40:18 AM 35.6347 -108.0939 237° Southwest 429 494 40,000  Level Albuquerque Center
Sat 02:41:19 AM 35.5619 -108.2328 237° Southwest 430 495 40,000  Level Albuquerque Center
Sat 02:42:19 AM 35.4986 -108.3506 237° Southwest 430 495 40,000  Level Albuquerque Center
Sat 02:43:19 AM 35.4350 -108.4675 236° Southwest 429 494 40,000  Level Albuquerque Center
Sat 02:44:20 AM 35.3725 -108.5844 237° Southwest 428 493 40,000  Level Albuquerque Center
Sat 02:45:20 AM 35.2992 -108.7203 237° Southwest 427 491 40,000  Level Albuquerque Center
Sat 02:46:20 AM 35.2358 -108.8383 237° Southwest 429 494 40,000  Level Albuquerque Center
Sat 02:47:21 AM 35.1717 -108.9547 236° Southwest 431 496 40,000  Level Albuquerque Center
Sat 02:48:21 AM 35.0969 -109.0931 237° Southwest 434 499 40,000  Level Albuquerque Center
Sat 02:49:21 AM 35.0314 -109.2089 235° Southwest 433 498 40,000  Level Albuquerque Center
Sat 02:50:22 AM 34.9681 -109.3289 237° Southwest 435 501 40,000  Level Albuquerque Center
Sat 02:51:22 AM 34.9033 -109.4464 236° Southwest 436 502 40,000  Level Albuquerque Center
Sat 02:52:23 AM 34.8239 -109.5806 234° Southwest 437 503 40,000  Level Albuquerque Center
Sat 02:53:23 AM 34.7586 -109.6997 236° Southwest 439 505 40,000 -100 Level Albuquerque Center
Sat 02:54:23 AM 34.6919 -109.8167 235° Southwest 440 506 39,800 -893 Descending Albuquerque Center
Sat 02:55:24 AM 34.6106 -109.9536 234° Southwest 445 512 38,200 -2,083 Descending Albuquerque Center
Sat 02:56:24 AM 34.5394 -110.0736 234° Southwest 455 524 35,600 -2,083 Descending Albuquerque Center
Sat 02:57:25 AM 34.4694 -110.1908 234° Southwest 450 518 34,000 -1,785 Descending Albuquerque Center
Sat 02:58:25 AM 34.4017 -110.3036 234° Southwest 440 506 32,000 -2,150 Descending Albuquerque Center
Sat 02:59:25 AM 34.3361 -110.4156 235° Southwest 434 499 29,700 -2,281 Descending Albuquerque Center
Sat 03:00:26 AM 34.2617 -110.5381 234° Southwest 426 490 27,400 -2,182 Descending Albuquerque Center
Sat 03:01:26 AM 34.1933 -110.6475 233° Southwest 415 478 25,300 -2,050 Descending Albuquerque Center
Sat 03:02:26 AM 34.1328 -110.7483 234° Southwest 401 461 23,300 -2,083 Descending Albuquerque Center
Sat 03:03:27 AM 34.0825 -110.8867 246° West 381 438 21,100 -1,934 Descending Albuquerque Center
Sat 03:04:27 AM 34.0444 -110.9969 247° West 364 419 19,400 -1,750 Descending Albuquerque Center
Sat 03:05:27 AM 34.0097 -111.1022 248° West 347 399 17,600 -1,736 Descending Albuquerque Center
Sat 03:06:28 AM 33.9564 -111.1886 233° Southwest 323 372 15,900 -1,686 Descending Albuquerque Center
Sat 03:07:28 AM 33.8961 -111.2683 228° Southwest 322 371 14,200 -1,636 Descending Albuquerque Center
Sat 03:08:29 AM 33.8392 -111.3467 229° Southwest 312 359 12,600 -1,179 Descending Albuquerque Center
Sat 03:09:20 AM 33.7933 -111.4083 228° Southwest 308 354 12,000 -378 Descending Albuquerque Center
Sat 03:10:20 AM 33.7358 -111.4867 229° Southwest 310 357 11,900 -595 Descending Albuquerque Center
Sat 03:11:21 AM 33.6844 -111.5692 233° Southwest 307 353 10,800 -1,041 Descending Albuquerque Center
Sat 03:12:21 AM 33.6328 -111.6486 232° Southwest 301 346 9,800 -1,000 Descending Albuquerque Center
Sat 03:13:21 AM 33.5825 -111.7256 232° Southwest 293 337 8,800 -1,190 Descending Albuquerque Center
Sat 03:14:22 AM 33.5503 -111.8094 245° Southwest 279 321 7,400 -1,438 Descending Albuquerque Center
Sat 03:15:22 AM 33.5256 -111.8964 251° West 275 316 5,900 -1,400 Descending Albuquerque Center
Sat 03:16:22 AM 33.5047 -111.9822 254° West 269 310 4,600 -942 Descending Albuquerque Center
Sat 03:17:23 AM 33.4964 -112.0656 263° West 250 288 4,000 -298 Descending Albuquerque Center
Sat 03:18:23 AM 33.4872 -112.1289 260° West 195 224 4,000 -650 Level Albuquerque Center
Sat 03:19:23 AM 33.4436 -112.1278 179° South 162 186 2,700 -992 Descending Albuquerque Center
Sat 03:20:24 AM 33.4303 -112.0811 109° East 157 181 2,000 -694 Descending Albuquerque Center
Sat 03:21:24 AM 33.4311 -112.0333 89° East 148 170 1,300 -700 Descending Albuquerque Center

Login

Don't have an account? Register now (free) for customized features, flight alerts, and more!